Accidente: Un avión ucraniano se estrella en el sur de Argelia
Resultados 1 al 8 de 8
  1. #1
    ...eitinots,vigüan,roteit
    Registro
    05 ene, 11
    Ubicación
    En el fijo de la milla18
    Mensajes
    540

    Un avión ucraniano se estrella en el sur de Argelia

    Los siete tripulantes del aparato han fallecido en el accidente ocurrido por causas desconocidas.
    Los restos del Antonov 12 ucraniano siniestrado esta madrugada con siete ocupantes a bordo han sido localizados en el sur de Argelia, informó la agencia estatal APS.

    Según las informaciones preliminares, el aparato de la compañía "Ucrania Air Alianza" se estrelló por causas desconocidas en una zona montañosa a unos quince kilómetros al sur del aeropuerto de Tamanraset, agregó la fuente.

    Según el comunicado del Ministerio de Transporte, el avión perdió contacto con la torre de control del aeródromo de Tamanraset tres minutos después de su despegue.

    El avión, que volaba con destino Guinea Ecuatorial había realizado una escala técnica en el aeropuerto argelino y transportaba material de la industria petrolera procedente de Glasgow (Reino Unido).
    Fuente: Un avión ucraniano se estrella en el sur de Argelia - Informacion.es

    Cooler Master CM Storm Enforcer - Tacens Radix VII AG 800W 80 Plus Silver - Asus Z97-Pro Gamer - Intel Core I5-4690K 3.5Ghz (OC 4.3 Ghz) - Asus GeForce GTX 750 Ti Strix OC 2GB GDDR5 - G.Skill Sniper DDR3 1866 PC3-14900 16GB 2x8GB CL9.... y una taza de regalo!!!

  2. #2
    ▀ ▄▀ ▄▀ ▄▀ ▄▀ ▄▀ ▄▀
    Registro
    29 ago, 11
    Ubicación
    en las cloacas del cielo, en los prados del subsuelo
    Mensajes
    1,967
    Menudos veteranos esos an12... en fin DEP
    Última edición por yogosun18; 31/08/2014 a las 01:22
    Esta historia que pudo ser verdad, parece una mentira, la vamos a contar...

  3. #3
    Top Gun.
    Registro
    15 ago, 09
    Ubicación
    CVN-65.
    Mensajes
    11,713
    Los Metars:

    Metars:
    DAAT 300300Z VRB01KT CAVOK 25/05 Q1017
    DAAT 300200Z 03006KT CAVOK 25/05 Q1017
    DAAT 300130Z 04005KT CAVOK 25/05 Q1017
    DAAT 300100Z 06005KT CAVOK 25/05 Q1017
    DAAT 300030Z 05007KT CAVOK 26/05 Q1017
    DAAT 300000Z 06008KT CAVOK 25/06 Q1018
    DAAT 292330Z 03006KT 9999 SCT053 26/06 Q1018
    DAAT 292300Z 03007KT 9999 SCT053 27/06 Q1018
    DAAT 292230Z 04007KT 9999 SCT053 27/06 Q1018

    Fuente AH: Crash: Ukraine Air Alliance AN12 near Tamanrasset on Aug 30th 2014, impacted terrain

    y el avión.



    Fuente AP: UR-DWF - ACR Aero-Charter Antonov An-12 (all models) at Prestwick | Photo ID 126488 | Airplane-Pictures.net
    Somos guardacostas... Nadie nos aprecia hasta que nos necesita " The guardian "
    ¡Dadme un VOR, un Radial, un DME y una Carta y volaré zero-zero hasta el mismísimo infierno!

  4. #4
    Usuario Foroaviones
    Registro
    01 feb, 09
    Ubicación
    Madrid
    Mensajes
    3,523
    ARGEL (Notimex).- Un avión civil ucraniano en el que viajaban siete personas se estrelló este sábado cerca del aeropuerto de la provincia de Tamanrasset, en el sur de Argelia, donde había realizado una escala técnica.

    El avión se dirigía a Guinea Ecuatorial, según informó la agencia de noticias oficial argelina, APS.

    De acuerdo con información preliminar, el aparato, un Antonov 12, se estrelló en una zona montañosa a unos 25 kilómetros al sur del aeropuerto de Tamanrasset.

    Tras el incidente una operación de búsqueda se puso en marcha y los equipos de rescate constataron que no había sobrevivientes, según un comunicado del Departamento de Transporte.

    El avión “perdió contacto con la torre de control del aeropuerto de Tamanrasset tres minutos después de despegar de ese aeropuerto a las 01:44 horas locales (02:44 GMT)”, indicó.

    La aeronave, que transportaba equipos petroleros, había partido del aeropuerto de Prestwick (Glasgow, Reino Unido) a Malabo (Guinea Ecuatorial), con varias paradas técnicas, incluidas las terminales de Ghardaia y Tamanrasset.

    “El mensaje de socorro fue transmitido a través del Centro de Control Regional de Argel (ACC) y el Servicio de Búsqueda y Salvamento (SAR) inició una investigación de inmediato, agregó el comunicado.

    “El avión se encuentra en una zona boscosa al sur de la pista de aterrizaje. Rescatistas lamentablemente no han encontrado supervivientes en el lugar del accidente”, precisó el comunicado.
    Avión ucraniano se estrella en el sur de Argel
    Distinguir a un aerotrastornado es fácil, en medio de una multitud cuando oiga el sonido de un avión surcando los cielos. Levantara la mirada hasta establecer contacto visual con el avión, da igual el numero de veces que lo haya visto.

  5. #5
    Usuario Foroaviones
    Registro
    25 mar, 14
    Ubicación
    Madrid, España
    Mensajes
    522
    Ese es el mismo avión que se ha caído?

  6. #6
    Ghostbuster
    Registro
    30 jun, 10
    Ubicación
    A 10.83 nm del VOR LELL por el radial 37
    Mensajes
    3,595
    Cita Iniciado por MadridSpotter Ver Mensaje
    Ese es el mismo avión que se ha caído?
    El avión de la foto es un 737 o un 727, no un AN-12
    Intel Core i7 6700K 4.0 GHz @4.8 GHz. - Asus Z170 Pro - Cooler Noctua NH-D15 - MSI GTX 1080 ti GamingX 11 GB DDR5X - 32 GB RAM DDR4 GSkill Ripjaws 2133MHz - Alimentación Corsair TM 950 W - LG UD69-W 4K-UHD 27"
    Mi canal de Youtube: http://www.youtube.com/user/Gerardius

    Nunca discutas con un estúpido, te hará descender a su nivel y ahí te vencerá por experiencia. (Mark Twain)

  7. #7
    Usuario Foroaviones
    Registro
    25 mar, 14
    Ubicación
    Madrid, España
    Mensajes
    522
    Cita Iniciado por Gerardius Ver Mensaje
    El avión de la foto es un 737 o un 727, no un AN-12
    Por eso pregunto, en esa noticia dicen que es el AN12 que se ha estrellado...

  8. #8
    Usuario Foroaviones
    Registro
    01 feb, 09
    Ubicación
    Madrid
    Mensajes
    3,523
    Pues aunque la foto le ponen en su pie que es el avión. Realizando una búsqueda por google de la foto esta sale en algunas noticias como el del accidente aéreo del Swiftair español fletado por Air Argelia. Así que mejor no hacer caso a los periódicos.
    Distinguir a un aerotrastornado es fácil, en medio de una multitud cuando oiga el sonido de un avión surcando los cielos. Levantara la mirada hasta establecer contacto visual con el avión, da igual el numero de veces que lo haya visto.

 

 

Temas Similares

  1. Respuestas: 6
    Último Mensaje: 09/08/2014, 19:17
  2. Accidente: Se accidenta avión militar en Argelia: álrededor de 100 víctimas
    Por Theremin en el foro Noticias
    Respuestas: 17
    Último Mensaje: 22/02/2014, 14:49
  3. Accidente: Avión se estrella en Canadá
    Por InFoRo en el foro Noticias
    Respuestas: 5
    Último Mensaje: 12/11/2013, 17:26
  4. Accidente: Se estrella avión en Ucrania
    Por InFoRo en el foro Noticias
    Respuestas: 16
    Último Mensaje: 13/10/2013, 13:33
  5. Accidente: Avión se estrella en Carolina del Sur
    Por InFoRo en el foro Noticias
    Respuestas: 1
    Último Mensaje: 05/08/2013, 10:00

Permisos de Publicación

  • No puedes crear nuevos temas
  • No puedes responder temas
  • No puedes subir archivos adjuntos
  • No puedes editar tus mensajes
  •